Timiskaming Regional Airport
CYXR : now visible

Airfield :











YOU CAN JOIN US ON...

 
LOGIN :

Register | Disclaimer

   EN    FR    IT 

 









Legend :    VFR   Marginal VFR   IFR   Intensive IFR   Very Intensive IFR
Visi :
Ceiling :
>= 8 km
>= 3000ft
5 to 8 km
1000 to 3000 ft
1500m to 5 km
500 to 1000 ft
800 to 1500m
200 to 500 ft
< 800m
< 200 ft
Symbols :   Thunderstorms  Fog  Heavy snow  Heavy precipitations  Wind > 20 kt






- Airport Elevation : 798 ft
- IATA code : YXR


CYXR - Timiskaming Regional

CURRENT METAR :
  • 031500Z AUTO 34010KT 9SM FEW100 23/14 A3002 RMK SLP169 DENSITY ALT 1800FT

EXPIRED METARs :
  • 031400Z AUTO 32009KT 9SM CLR 22/16 A3002 RMK SLP167 DENSITY ALT 1600FT
  • 031300Z AUTO 31010KT 9SM CLR 21/16 A3001 RMK SLP165 DENSITY ALT 1500FT

TAF TAF CYXR
Valid from the 03 at 12:00 until the 04 at 00:00 UTC


031138Z 0312/0324 32007KT P6SM BKN060
BECMG 0312/0314 33012KT FEW060 RMK FCST BASED ON AUTO OBS. NXT FCST BY 031800Z
CZYZ FIR / North America



MET'MAP, your aeronautical weather chart ! - Copyright ORBIFLY December 2007 - Disclaimer

ORBIFLY MET'MAP TEAM :

Programming & Development : Alexandra Zaïnal
Concept & original design : Baudouin d'Aumeries
Assistance for programming : Marc-Olivier Méhu
Technical & hardware support : Manuel Goepfert

Contact : metmap@orbifly.com




SOURCES & CREDITS :

   NOAA       Earth
Advisory